sensor_id;sensor_type;location;lat;lon;timestamp;P1;P2;P0
82817;PMS5003;72572;46.824;-71.222;2024-01-16T00:00:46;18.81;16.1;10.57
82817;PMS5003;72572;46.824;-71.222;2024-01-16T00:03:09;25.05;21.4;12.75
82817;PMS5003;72572;46.824;-71.222;2024-01-16T00:05:35;17.24;16.14;12.52
82817;PMS5003;72572;46.824;-71.222;2024-01-16T00:08:00;29.25;19.65;12.4
82817;PMS5003;72572;46.824;-71.222;2024-01-16T00:10:24;21.57;18.24;10.76
82817;PMS5003;72572;46.824;-71.222;2024-01-16T00:12:49;17.9;17.71;11.71
82817;PMS5003;72572;46.824;-71.222;2024-01-16T00:15:17;19.67;18.38;12.43
82817;PMS5003;72572;46.824;-71.222;2024-01-16T00:17:40;19.82;16.86;11.36
82817;PMS5003;72572;46.824;-71.222;2024-01-16T00:20:06;20.14;18.81;13
82817;PMS5003;72572;46.824;-71.222;2024-01-16T00:22:32;19.43;16.19;11.05
82817;PMS5003;72572;46.824;-71.222;2024-01-16T00:24:56;17.21;13.84;9.32
82817;PMS5003;72572;46.824;-71.222;2024-01-16T00:27:22;24.9;21.35;15
82817;PMS5003;72572;46.824;-71.222;2024-01-16T00:29:49;21.86;19.29;12.05
82817;PMS5003;72572;46.824;-71.222;2024-01-16T00:32:13;23.14;21;14.67
82817;PMS5003;72572;46.824;-71.222;2024-01-16T00:34:41;19;17.73;13.5
82817;PMS5003;72572;46.824;-71.222;2024-01-16T00:37:05;18.24;17.43;13.33
82817;PMS5003;72572;46.824;-71.222;2024-01-16T00:39:29;26;23.38;14.33
82817;PMS5003;72572;46.824;-71.222;2024-01-16T00:41:57;23.05;17.24;11.24
82817;PMS5003;72572;46.824;-71.222;2024-01-16T00:44:21;22.57;19.19;13.19
82817;PMS5003;72572;46.824;-71.222;2024-01-16T00:46:46;20.75;18.45;13.2
82817;PMS5003;72572;46.824;-71.222;2024-01-16T00:49:11;18.95;18.25;12
82817;PMS5003;72572;46.824;-71.222;2024-01-16T00:51:38;18.48;17.29;11.62
82817;PMS5003;72572;46.824;-71.222;2024-01-16T00:54:04;22.05;20.29;13.67
82817;PMS5003;72572;46.824;-71.222;2024-01-16T00:56:28;23.57;22.67;14.52
82817;PMS5003;72572;46.824;-71.222;2024-01-16T00:58:52;19.57;18.43;12
82817;PMS5003;72572;46.824;-71.222;2024-01-16T01:01:17;17.62;17.38;13.29
82817;PMS5003;72572;46.824;-71.222;2024-01-16T01:03:45;18.14;16.71;11.52
82817;PMS5003;72572;46.824;-71.222;2024-01-16T01:06:11;20.19;19.76;15.24
82817;PMS5003;72572;46.824;-71.222;2024-01-16T01:08:37;24.64;19.18;14.77
82817;PMS5003;72572;46.824;-71.222;2024-01-16T01:11:01;24;20.86;12.76
82817;PMS5003;72572;46.824;-71.222;2024-01-16T01:13:27;24.33;20.86;14.86
82817;PMS5003;72572;46.824;-71.222;2024-01-16T01:15:52;18.67;18.19;13.86
82817;PMS5003;72572;46.824;-71.222;2024-01-16T01:18:17;19.48;17.9;10.29
82817;PMS5003;72572;46.824;-71.222;2024-01-16T01:20:43;21.14;19.57;12.24
82817;PMS5003;72572;46.824;-71.222;2024-01-16T01:23:08;20.52;18.81;11.86
82817;PMS5003;72572;46.824;-71.222;2024-01-16T01:25:34;21;20.09;13.14
82817;PMS5003;72572;46.824;-71.222;2024-01-16T01:27:59;18.33;17.57;11
82817;PMS5003;72572;46.824;-71.222;2024-01-16T01:30:24;18.86;15.76;12.1
82817;PMS5003;72572;46.824;-71.222;2024-01-16T01:32:51;17.71;17.05;11.9
82817;PMS5003;72572;46.824;-71.222;2024-01-16T01:35:17;18;15.43;11.29
82817;PMS5003;72572;46.824;-71.222;2024-01-16T01:37:40;16.57;15.71;11.52
82817;PMS5003;72572;46.824;-71.222;2024-01-16T01:40:06;19.57;17.43;11.1
82817;PMS5003;72572;46.824;-71.222;2024-01-16T01:42:31;14.41;13.77;9.45
82817;PMS5003;72572;46.824;-71.222;2024-01-16T01:44:58;17.67;16.86;11.05
82817;PMS5003;72572;46.824;-71.222;2024-01-16T01:47:20;17.86;15.86;11.33
82817;PMS5003;72572;46.824;-71.222;2024-01-16T01:49:47;24.52;19.71;11.67
82817;PMS5003;72572;46.824;-71.222;2024-01-16T01:52:12;18.71;17.14;11.62
82817;PMS5003;72572;46.824;-71.222;2024-01-16T01:54:37;17.05;16.48;12.71
82817;PMS5003;72572;46.824;-71.222;2024-01-16T01:57:04;19.29;18.19;13.48
82817;PMS5003;72572;46.824;-71.222;2024-01-16T01:59:29;18.77;18.09;12.5
82817;PMS5003;72572;46.824;-71.222;2024-01-16T02:01:53;26.9;22.43;13.19
82817;PMS5003;72572;46.824;-71.222;2024-01-16T02:04:18;19.52;17.29;11.62
82817;PMS5003;72572;46.824;-71.222;2024-01-16T02:06:45;20.14;20;13.57
82817;PMS5003;72572;46.824;-71.222;2024-01-16T02:09:11;19.62;19.29;12.24
82817;PMS5003;72572;46.824;-71.222;2024-01-16T02:11:36;20.86;19.29;13.14
82817;PMS5003;72572;46.824;-71.222;2024-01-16T02:14:01;23.24;21.9;13.48
82817;PMS5003;72572;46.824;-71.222;2024-01-16T02:16:26;20.77;19.64;14.05
82817;PMS5003;72572;46.824;-71.222;2024-01-16T02:18:50;21.62;17.9;12
82817;PMS5003;72572;46.824;-71.222;2024-01-16T02:21:17;21.29;19.67;14.1
82817;PMS5003;72572;46.824;-71.222;2024-01-16T02:23:45;24.29;21.29;14.52
82817;PMS5003;72572;46.824;-71.222;2024-01-16T02:26:08;24.95;23.71;15
82817;PMS5003;72572;46.824;-71.222;2024-01-16T02:28:33;27.14;22.48;13.38
82817;PMS5003;72572;46.824;-71.222;2024-01-16T02:30:58;21.52;18.24;12.38
82817;PMS5003;72572;46.824;-71.222;2024-01-16T02:33:25;21.41;20.82;12.23
82817;PMS5003;72572;46.824;-71.222;2024-01-16T02:35:51;21.29;21.29;15.29
82817;PMS5003;72572;46.824;-71.222;2024-01-16T02:38:15;22.48;21.95;15.33
82817;PMS5003;72572;46.824;-71.222;2024-01-16T02:40:41;24.76;22.57;13.86
82817;PMS5003;72572;46.824;-71.222;2024-01-16T02:43:05;21.19;19;12.95
82817;PMS5003;72572;46.824;-71.222;2024-01-16T02:45:29;23.05;21.4;14.6
82817;PMS5003;72572;46.824;-71.222;2024-01-16T02:47:54;24.19;18.05;11.9
82817;PMS5003;72572;46.824;-71.222;2024-01-16T02:50:20;22.09;21.59;13.55
82817;PMS5003;72572;46.824;-71.222;2024-01-16T02:52:47;18.19;17.43;13
82817;PMS5003;72572;46.824;-71.222;2024-01-16T02:55:12;25.65;20.6;14.15
82817;PMS5003;72572;46.824;-71.222;2024-01-16T02:57:37;28.57;23.38;16.19
82817;PMS5003;72572;46.824;-71.222;2024-01-16T03:00:03;24.05;21.1;14.71
82817;PMS5003;72572;46.824;-71.222;2024-01-16T03:02:27;29.29;23.62;15.24
82817;PMS5003;72572;46.824;-71.222;2024-01-16T03:04:52;29.9;26.29;17.71
82817;PMS5003;72572;46.824;-71.222;2024-01-16T03:07:20;25.95;20.64;16.73
82817;PMS5003;72572;46.824;-71.222;2024-01-16T03:09:45;26.71;24.95;16.86
82817;PMS5003;72572;46.824;-71.222;2024-01-16T03:12:09;31.7;25.05;14.85
82817;PMS5003;72572;46.824;-71.222;2024-01-16T03:14:35;22.57;20.33;15.24
82817;PMS5003;72572;46.824;-71.222;2024-01-16T03:17:02;22;21.38;14.05
82817;PMS5003;72572;46.824;-71.222;2024-01-16T03:19:24;26.57;23.43;16.1
82817;PMS5003;72572;46.824;-71.222;2024-01-16T03:21:51;23.57;21.29;13.14
82817;PMS5003;72572;46.824;-71.222;2024-01-16T03:24:16;25;23.81;16.29
82817;PMS5003;72572;46.824;-71.222;2024-01-16T03:26:41;27;24.05;16.48
82817;PMS5003;72572;46.824;-71.222;2024-01-16T03:29:07;27.9;25.52;15.48
82817;PMS5003;72572;46.824;-71.222;2024-01-16T03:31:34;26.33;24.52;16.29
82817;PMS5003;72572;46.824;-71.222;2024-01-16T03:33:57;25.95;24;17.33
82817;PMS5003;72572;46.824;-71.222;2024-01-16T03:36:24;23.9;22.62;16.43
82817;PMS5003;72572;46.824;-71.222;2024-01-16T03:38:48;31.05;28.3;19.4
82817;PMS5003;72572;46.824;-71.222;2024-01-16T03:41:14;31.05;27.05;17.05
82817;PMS5003;72572;46.824;-71.222;2024-01-16T03:43:40;38.1;32.5;19.75
82817;PMS5003;72572;46.824;-71.222;2024-01-16T03:46:04;28.75;26;19.8
82817;PMS5003;72572;46.824;-71.222;2024-01-16T03:48:31;28;27.05;18.9
82817;PMS5003;72572;46.824;-71.222;2024-01-16T03:50:55;30;28.43;20.38
82817;PMS5003;72572;46.824;-71.222;2024-01-16T03:53:21;28.1;25.1;16
82817;PMS5003;72572;46.824;-71.222;2024-01-16T03:55:59;32.1;26.14;17.24
82817;PMS5003;72572;46.824;-71.222;2024-01-16T03:58:22;36.95;33.48;21.86
82817;PMS5003;72572;46.824;-71.222;2024-01-16T04:00:50;32.14;28.71;20.05
82817;PMS5003;72572;46.824;-71.222;2024-01-16T04:03:15;41.15;31.35;19.8
82817;PMS5003;72572;46.824;-71.222;2024-01-16T04:05:39;37.26;30.95;20.47
82817;PMS5003;72572;46.824;-71.222;2024-01-16T04:08:05;36.8;28.7;17.8
82817;PMS5003;72572;46.824;-71.222;2024-01-16T04:10:29;31.6;27.4;18.55
82817;PMS5003;72572;46.824;-71.222;2024-01-16T04:12:58;34.38;28.33;18.33
82817;PMS5003;72572;46.824;-71.222;2024-01-16T04:15:21;30.9;29;19.5
82817;PMS5003;72572;46.824;-71.222;2024-01-16T04:17:45;41.8;28.55;19.05
82817;PMS5003;72572;46.824;-71.222;2024-01-16T04:20:13;26.85;26.25;19
82817;PMS5003;72572;46.824;-71.222;2024-01-16T04:22:38;30.5;28.3;17.4
82817;PMS5003;72572;46.824;-71.222;2024-01-16T04:25:00;35.35;30.8;19.05
82817;PMS5003;72572;46.824;-71.222;2024-01-16T04:27:27;34.15;29;19.05
82817;PMS5003;72572;46.824;-71.222;2024-01-16T04:29:52;31.71;31.14;20.24
82817;PMS5003;72572;46.824;-71.222;2024-01-16T04:32:19;25.55;24.25;17.75
82817;PMS5003;72572;46.824;-71.222;2024-01-16T04:34:45;34.95;27.89;18.63
82817;PMS5003;72572;46.824;-71.222;2024-01-16T04:37:09;37.1;29.9;17.35
82817;PMS5003;72572;46.824;-71.222;2024-01-16T04:39:34;25.8;23.95;16.5
82817;PMS5003;72572;46.824;-71.222;2024-01-16T04:41:58;33.85;32.9;20.7
82817;PMS5003;72572;46.824;-71.222;2024-01-16T04:44:23;30.15;26.3;18
82817;PMS5003;72572;46.824;-71.222;2024-01-16T04:46:50;28.76;27.48;19.48
82817;PMS5003;72572;46.824;-71.222;2024-01-16T04:49:16;20.75;17.45;12.5
82817;PMS5003;72572;46.824;-71.222;2024-01-16T04:51:41;23.05;21.48;13
82817;PMS5003;72572;46.824;-71.222;2024-01-16T04:54:08;28.84;23.16;13.16
82817;PMS5003;72572;46.824;-71.222;2024-01-16T04:56:32;25.25;22.1;14.8
82817;PMS5003;72572;46.824;-71.222;2024-01-16T04:58:58;37.35;32.15;21.25
82817;PMS5003;72572;46.824;-71.222;2024-01-16T05:01:20;33.3;30.4;21
82817;PMS5003;72572;46.824;-71.222;2024-01-16T05:03:47;35;30.48;17.33
82817;PMS5003;72572;46.824;-71.222;2024-01-16T05:06:14;34.25;31;20.8
82817;PMS5003;72572;46.824;-71.222;2024-01-16T05:08:39;32.8;29.8;17.65
82817;PMS5003;72572;46.824;-71.222;2024-01-16T05:11:05;31.75;28.75;18.6
82817;PMS5003;72572;46.824;-71.222;2024-01-16T05:13:30;31.35;25.75;17.6
82817;PMS5003;72572;46.824;-71.222;2024-01-16T05:15:54;31.45;24.15;15.55
82817;PMS5003;72572;46.824;-71.222;2024-01-16T05:18:19;37.7;28.35;18.05
82817;PMS5003;72572;46.824;-71.222;2024-01-16T05:20:45;43.62;36;22.95
82817;PMS5003;72572;46.824;-71.222;2024-01-16T05:23:11;36.05;31.75;22.8
82817;PMS5003;72572;46.824;-71.222;2024-01-16T05:25:36;35.45;33.15;23.1
82817;PMS5003;72572;46.824;-71.222;2024-01-16T05:28:02;43.2;38.15;24
82817;PMS5003;72572;46.824;-71.222;2024-01-16T05:30:25;45.15;38.1;22.6
82817;PMS5003;72572;46.824;-71.222;2024-01-16T05:32:51;38.65;34.1;22.85
82817;PMS5003;72572;46.824;-71.222;2024-01-16T05:35:17;47.2;41.95;27.2
82817;PMS5003;72572;46.824;-71.222;2024-01-16T05:37:44;52.29;41.33;22.57
82817;PMS5003;72572;46.824;-71.222;2024-01-16T05:40:07;45.75;39.4;26.25
82817;PMS5003;72572;46.824;-71.222;2024-01-16T05:42:34;49.4;38.6;24.9
82817;PMS5003;72572;46.824;-71.222;2024-01-16T05:44:57;45.15;41.9;25.45
82817;PMS5003;72572;46.824;-71.222;2024-01-16T05:47:23;41.2;36.7;25.15
82817;PMS5003;72572;46.824;-71.222;2024-01-16T05:49:49;52.22;41.11;25.44
82817;PMS5003;72572;46.824;-71.222;2024-01-16T05:52:13;37.9;30.15;21.25
82817;PMS5003;72572;46.824;-71.222;2024-01-16T05:54:41;44;39;24.67
82817;PMS5003;72572;46.824;-71.222;2024-01-16T05:57:05;42.05;37.3;26.3
82817;PMS5003;72572;46.824;-71.222;2024-01-16T05:59:31;51.58;40.74;24.26
82817;PMS5003;72572;46.824;-71.222;2024-01-16T06:01:57;40.65;38.65;23.15
82817;PMS5003;72572;46.824;-71.222;2024-01-16T06:04:22;48.25;37.5;24.25
82817;PMS5003;72572;46.824;-71.222;2024-01-16T06:06:47;47.3;42.25;26.6
82817;PMS5003;72572;46.824;-71.222;2024-01-16T06:09:13;35.25;32.6;20
82817;PMS5003;72572;46.824;-71.222;2024-01-16T06:11:38;45.1;36.19;23.57
82817;PMS5003;72572;46.824;-71.222;2024-01-16T06:14:03;42.2;37.2;26.6
82817;PMS5003;72572;46.824;-71.222;2024-01-16T06:16:29;52.6;43.4;28.85
82817;PMS5003;72572;46.824;-71.222;2024-01-16T06:18:54;38.75;36.7;23.25
82817;PMS5003;72572;46.824;-71.222;2024-01-16T06:21:19;51.58;41.26;25.32
82817;PMS5003;72572;46.824;-71.222;2024-01-16T06:23:45;43.55;40.85;26.45
82817;PMS5003;72572;46.824;-71.222;2024-01-16T06:26:08;38.05;35.7;23.65
82817;PMS5003;72572;46.824;-71.222;2024-01-16T06:28:34;40.86;35.57;23.48
82817;PMS5003;72572;46.824;-71.222;2024-01-16T06:31:01;45.42;36.05;24.37
82817;PMS5003;72572;46.824;-71.222;2024-01-16T06:33:24;37.3;35;21.75
82817;PMS5003;72572;46.824;-71.222;2024-01-16T06:35:53;43.55;38.65;23.3
82817;PMS5003;72572;46.824;-71.222;2024-01-16T06:38:17;46.75;39.3;23.75
82817;PMS5003;72572;46.824;-71.222;2024-01-16T06:40:40;45.4;38.85;24.9
82817;PMS5003;72572;46.824;-71.222;2024-01-16T06:43:06;56.42;43.84;27.11
82817;PMS5003;72572;46.824;-71.222;2024-01-16T06:45:32;50.57;40.57;24.43
82817;PMS5003;72572;46.824;-71.222;2024-01-16T06:47:58;46.7;39.85;25.7
82817;PMS5003;72572;46.824;-71.222;2024-01-16T06:50:23;41.2;37;23.6
82817;PMS5003;72572;46.824;-71.222;2024-01-16T06:52:48;52.6;43;24.6
82817;PMS5003;72572;46.824;-71.222;2024-01-16T06:55:14;48.85;39.35;24.6
82817;PMS5003;72572;46.824;-71.222;2024-01-16T06:57:40;37.6;34.85;22.7
82817;PMS5003;72572;46.824;-71.222;2024-01-16T07:00:03;35.75;32.6;21.25
82817;PMS5003;72572;46.824;-71.222;2024-01-16T07:02:29;36.95;34.9;21.33
82817;PMS5003;72572;46.824;-71.222;2024-01-16T07:04:55;39.8;37.5;24.65
82817;PMS5003;72572;46.824;-71.222;2024-01-16T07:07:22;47.58;40.74;23.74
82817;PMS5003;72572;46.824;-71.222;2024-01-16T07:09:46;43;39.95;25.8
82817;PMS5003;72572;46.824;-71.222;2024-01-16T07:12:13;36.81;34.52;23.33
82817;PMS5003;72572;46.824;-71.222;2024-01-16T07:14:38;41.95;39.15;21.85
82817;PMS5003;72572;46.824;-71.222;2024-01-16T07:17:02;35.35;31.8;21.8
82817;PMS5003;72572;46.824;-71.222;2024-01-16T07:19:28;43.19;34.48;22.38
82817;PMS5003;72572;46.824;-71.222;2024-01-16T07:21:54;34.85;33.2;21.35
82817;PMS5003;72572;46.824;-71.222;2024-01-16T07:24:19;42.7;38.6;21.35
82817;PMS5003;72572;46.824;-71.222;2024-01-16T07:26:43;42.75;36.3;21.8
82817;PMS5003;72572;46.824;-71.222;2024-01-16T07:29:09;42.55;35;22.7
82817;PMS5003;72572;46.824;-71.222;2024-01-16T07:31:33;54.1;40.55;24.25
82817;PMS5003;72572;46.824;-71.222;2024-01-16T07:33:58;39.85;36.4;23.45
82817;PMS5003;72572;46.824;-71.222;2024-01-16T07:36:25;44.14;38.81;24.52
82817;PMS5003;72572;46.824;-71.222;2024-01-16T07:38:50;32.52;31.57;21.57
82817;PMS5003;72572;46.824;-71.222;2024-01-16T07:41:14;30.7;29;19.5
82817;PMS5003;72572;46.824;-71.222;2024-01-16T07:43:40;40.6;36.7;24.1
82817;PMS5003;72572;46.824;-71.222;2024-01-16T07:46:07;43.95;36.9;24.1
82817;PMS5003;72572;46.824;-71.222;2024-01-16T07:48:33;31.65;27.6;18.4
82817;PMS5003;72572;46.824;-71.222;2024-01-16T07:50:56;27.45;23.15;13.7
82817;PMS5003;72572;46.824;-71.222;2024-01-16T07:53:24;31.9;24.14;17.9
82817;PMS5003;72572;46.824;-71.222;2024-01-16T07:55:46;23.35;19.5;12.8
82817;PMS5003;72572;46.824;-71.222;2024-01-16T07:58:12;34.35;24.7;15.05
82817;PMS5003;72572;46.824;-71.222;2024-01-16T08:00:37;19.9;19;14.5
82817;PMS5003;72572;46.824;-71.222;2024-01-16T08:03:07;20.1;18.8;11.2
82817;PMS5003;72572;46.824;-71.222;2024-01-16T08:05:29;13.2;13;11
82817;PMS5003;72572;46.824;-71.222;2024-01-16T08:07:55;19.2;16.15;9.95
82817;PMS5003;72572;46.824;-71.222;2024-01-16T08:10:19;14.24;13.29;7.95
82817;PMS5003;72572;46.824;-71.222;2024-01-16T08:12:46;13.3;12.35;8
82817;PMS5003;72572;46.824;-71.222;2024-01-16T08:15:11;15.3;13.9;8.35
82817;PMS5003;72572;46.824;-71.222;2024-01-16T08:17:36;16.05;14.1;9.35
82817;PMS5003;72572;46.824;-71.222;2024-01-16T08:19:59;14.15;13.4;8.95
82817;PMS5003;72572;46.824;-71.222;2024-01-16T08:22:25;15.55;14.6;10.15
82817;PMS5003;72572;46.824;-71.222;2024-01-16T08:24:51;16.3;15.25;10
82817;PMS5003;72572;46.824;-71.222;2024-01-16T08:27:18;15.62;14.38;9.1
82817;PMS5003;72572;46.824;-71.222;2024-01-16T08:29:42;14.6;14.6;10.35
82817;PMS5003;72572;46.824;-71.222;2024-01-16T08:32:08;18.5;17.3;12.25
82817;PMS5003;72572;46.824;-71.222;2024-01-16T08:34:32;16.35;15.5;11
82817;PMS5003;72572;46.824;-71.222;2024-01-16T08:36:57;28.32;23.11;13.16
82817;PMS5003;72572;46.824;-71.222;2024-01-16T08:39:24;19.1;16.55;11.05
82817;PMS5003;72572;46.824;-71.222;2024-01-16T08:41:49;28.5;25.3;17.6
82817;PMS5003;72572;46.824;-71.222;2024-01-16T08:44:15;33.85;30.15;18.65
82817;PMS5003;72572;46.824;-71.222;2024-01-16T08:46:40;34.1;28;18.65
82817;PMS5003;72572;46.824;-71.222;2024-01-16T08:49:05;35.95;31.63;21.68
82817;PMS5003;72572;46.824;-71.222;2024-01-16T08:51:30;39.55;33.3;18.95
82817;PMS5003;72572;46.824;-71.222;2024-01-16T08:53:56;36.58;33.84;20.05
82817;PMS5003;72572;46.824;-71.222;2024-01-16T08:56:22;40.42;38.05;22
82817;PMS5003;72572;46.824;-71.222;2024-01-16T08:58:48;43.2;36.05;24.25
82817;PMS5003;72572;46.824;-71.222;2024-01-16T09:25:25;43.76;35.81;21.62
82817;PMS5003;72572;46.824;-71.222;2024-01-16T09:25:38;37.81;34.95;19.57
82817;PMS5003;72572;46.824;-71.222;2024-01-16T09:25:46;29.48;29;20.71
82817;PMS5003;72572;46.824;-71.222;2024-01-16T09:25:55;34.43;31.1;19.52
82817;PMS5003;72572;46.824;-71.222;2024-01-16T09:26:05;38.14;32.57;19.62
82817;PMS5003;72572;46.824;-71.222;2024-01-16T09:26:14;37.38;27.57;18.57
82817;PMS5003;72572;46.824;-71.222;2024-01-16T09:26:21;37.05;30.57;19.95
82817;PMS5003;72572;46.824;-71.222;2024-01-16T09:26:28;25.67;24.95;15.62
82817;PMS5003;72572;46.824;-71.222;2024-01-16T09:28:45;33.33;27.29;18.81
82817;PMS5003;72572;46.824;-71.222;2024-01-16T09:31:11;44.76;31.76;20.41
82817;PMS5003;72572;46.824;-71.222;2024-01-16T09:33:35;33.57;28.52;17.81
82817;PMS5003;72572;46.824;-71.222;2024-01-16T09:36:01;32.2;30.6;18.6
82817;PMS5003;72572;46.824;-71.222;2024-01-16T09:38:27;35.7;29.05;18.3
82817;PMS5003;72572;46.824;-71.222;2024-01-16T09:40:52;39.05;30.15;19.75
82817;PMS5003;72572;46.824;-71.222;2024-01-16T09:43:17;34.16;30.53;20
82817;PMS5003;72572;46.824;-71.222;2024-01-16T09:45:42;27.16;24.37;18
82817;PMS5003;72572;46.824;-71.222;2024-01-16T09:48:09;26.35;22.8;15.95
82817;PMS5003;72572;46.824;-71.222;2024-01-16T09:50:33;26.76;23.33;15.29
82817;PMS5003;72572;46.824;-71.222;2024-01-16T09:53:00;22.7;22.4;13.95
82817;PMS5003;72572;46.824;-71.222;2024-01-16T09:55:23;24.95;23.55;14.75
82817;PMS5003;72572;46.824;-71.222;2024-01-16T09:57:51;32.35;27.65;16.1
82817;PMS5003;72572;46.824;-71.222;2024-01-16T10:00:15;31.5;24.3;16.65
82817;PMS5003;72572;46.824;-71.222;2024-01-16T10:02:41;23.25;21.6;16.65
82817;PMS5003;72572;46.824;-71.222;2024-01-16T10:05:05;27.05;24.4;15.55
82817;PMS5003;72572;46.824;-71.222;2024-01-16T10:07:31;24.33;23.38;14.76
82817;PMS5003;72572;46.824;-71.222;2024-01-16T10:09:56;25.9;24.75;16.85
82817;PMS5003;72572;46.824;-71.222;2024-01-16T10:12:22;28.95;25.65;15.5
82817;PMS5003;72572;46.824;-71.222;2024-01-16T10:14:46;30.85;27.25;18.9
82817;PMS5003;72572;46.824;-71.222;2024-01-16T10:17:11;22.6;22.2;13.75
82817;PMS5003;72572;46.824;-71.222;2024-01-16T10:19:38;26.75;23.6;14.6
82817;PMS5003;72572;46.824;-71.222;2024-01-16T10:22:02;21.05;19.45;12.9
82817;PMS5003;72572;46.824;-71.222;2024-01-16T10:24:27;26.62;25.62;16.9
82817;PMS5003;72572;46.824;-71.222;2024-01-16T10:26:57;31.75;27.05;16.6
82817;PMS5003;72572;46.824;-71.222;2024-01-16T10:29:20;30.25;28.45;15.5
82817;PMS5003;72572;46.824;-71.222;2024-01-16T10:31:45;24.75;21.7;14.5
82817;PMS5003;72572;46.824;-71.222;2024-01-16T10:34:18;22;19.8;14.1
82817;PMS5003;72572;46.824;-71.222;2024-01-16T10:36:34;34.7;26.25;15.85
82817;PMS5003;72572;46.824;-71.222;2024-01-16T10:39:03;28.7;26.3;18.65
82817;PMS5003;72572;46.824;-71.222;2024-01-16T10:41:26;27.38;25.67;17.14
82817;PMS5003;72572;46.824;-71.222;2024-01-16T10:43:49;29.65;27.8;18.15
82817;PMS5003;72572;46.824;-71.222;2024-01-16T10:46:16;39.74;33.58;20.37
82817;PMS5003;72572;46.824;-71.222;2024-01-16T10:48:43;34.63;32.53;20.26
82817;PMS5003;72572;46.824;-71.222;2024-01-16T10:51:08;39.15;31.85;18.85
82817;PMS5003;72572;46.824;-71.222;2024-01-16T10:53:32;31.25;27.55;18.95
82817;PMS5003;72572;46.824;-71.222;2024-01-16T10:55:57;40.8;33.6;20.75
82817;PMS5003;72572;46.824;-71.222;2024-01-16T10:58:31;35.35;33.7;23.9
82817;PMS5003;72572;46.824;-71.222;2024-01-16T11:00:59;43.76;35.19;22.14
82817;PMS5003;72572;46.824;-71.222;2024-01-16T11:03:22;30.45;29.75;20.9
82817;PMS5003;72572;46.824;-71.222;2024-01-16T11:05:47;40.15;31.45;21.5
82817;PMS5003;72572;46.824;-71.222;2024-01-16T11:08:11;31.15;26.7;17.5
82817;PMS5003;72572;46.824;-71.222;2024-01-16T11:10:37;32.05;29.8;18.3
82817;PMS5003;72572;46.824;-71.222;2024-01-16T11:13:03;24.25;23.25;15.3
82817;PMS5003;72572;46.824;-71.222;2024-01-16T11:15:28;26.1;23.76;15.71
82817;PMS5003;72572;46.824;-71.222;2024-01-16T11:17:54;27.95;23.35;14.6
82817;PMS5003;72572;46.824;-71.222;2024-01-16T11:20:19;42.75;33;18.8
82817;PMS5003;72572;46.824;-71.222;2024-01-16T11:22:43;30.75;29.2;17.85
82817;PMS5003;72572;46.824;-71.222;2024-01-16T11:25:10;30.1;25.05;18.35
82817;PMS5003;72572;46.824;-71.222;2024-01-16T11:27:35;23.2;23.2;16.05
82817;PMS5003;72572;46.824;-71.222;2024-01-16T11:30:01;37.3;28.1;18.05
82817;PMS5003;72572;46.824;-71.222;2024-01-16T11:32:33;35.05;29.29;19.14
82817;PMS5003;72572;46.824;-71.222;2024-01-16T11:34:57;27.15;24.75;17
82817;PMS5003;72572;46.824;-71.222;2024-01-16T11:37:18;29.25;26.85;17.65
82817;PMS5003;72572;46.824;-71.222;2024-01-16T11:39:40;29.45;26.95;18.3
82817;PMS5003;72572;46.824;-71.222;2024-01-16T11:42:08;32.95;27.8;18.4
82817;PMS5003;72572;46.824;-71.222;2024-01-16T11:44:39;31.45;25.95;15.95
82817;PMS5003;72572;46.824;-71.222;2024-01-16T11:47:03;28.45;24.9;17.55
82817;PMS5003;72572;46.824;-71.222;2024-01-16T11:49:22;30.62;27.29;18
82817;PMS5003;72572;46.824;-71.222;2024-01-16T11:51:48;32.3;29.75;20
82817;PMS5003;72572;46.824;-71.222;2024-01-16T11:54:15;26.55;23.55;17
82817;PMS5003;72572;46.824;-71.222;2024-01-16T11:57:52;23.5;23;14.5
82817;PMS5003;72572;46.824;-71.222;2024-01-16T11:59:17;28.85;26.45;18.65
82817;PMS5003;72572;46.824;-71.222;2024-01-16T12:01:29;31.7;30.4;20.6
82817;PMS5003;72572;46.824;-71.222;2024-01-16T12:04:02;32.05;28.4;18.35
82817;PMS5003;72572;46.824;-71.222;2024-01-16T12:06:22;30.14;24.43;15.62
82817;PMS5003;72572;46.824;-71.222;2024-01-16T12:08:46;34.25;29.65;16.9
82817;PMS5003;72572;46.824;-71.222;2024-01-16T12:11:12;33.65;29.75;20.35
82817;PMS5003;72572;46.824;-71.222;2024-01-16T12:13:38;37.6;31.05;20.1
82817;PMS5003;72572;46.824;-71.222;2024-01-16T12:16:03;31.15;28.5;18.7
82817;PMS5003;72572;46.824;-71.222;2024-01-16T12:18:26;25.05;24.75;15.35
82817;PMS5003;72572;46.824;-71.222;2024-01-16T12:20:52;31.2;28.2;19.15
82817;PMS5003;72572;46.824;-71.222;2024-01-16T12:23:19;28.76;26.71;19.33
82817;PMS5003;72572;46.824;-71.222;2024-01-16T12:25:43;47.95;42.75;22.85
82817;PMS5003;72572;46.824;-71.222;2024-01-16T12:28:10;43.84;37.63;24.95
82817;PMS5003;72572;46.824;-71.222;2024-01-16T12:30:34;42.16;38.74;24.16
82817;PMS5003;72572;46.824;-71.222;2024-01-16T12:33:07;56;44.1;26.25
82817;PMS5003;72572;46.824;-71.222;2024-01-16T12:35:25;44;38.37;20.89
82817;PMS5003;72572;46.824;-71.222;2024-01-16T12:37:59;55.45;42.35;26.95
82817;PMS5003;72572;46.824;-71.222;2024-01-16T12:40:15;48.75;43.05;28.4
82817;PMS5003;72572;46.824;-71.222;2024-01-16T12:42:41;43.95;38.74;23.11
82817;PMS5003;72572;46.824;-71.222;2024-01-16T12:45:08;45.26;36.32;23.47
82817;PMS5003;72572;46.824;-71.222;2024-01-16T12:47:31;25.45;20.4;13.9
82817;PMS5003;72572;46.824;-71.222;2024-01-16T12:49:57;16.15;15.75;11
82817;PMS5003;72572;46.824;-71.222;2024-01-16T12:52:23;16.9;15.3;11.8
82817;PMS5003;72572;46.824;-71.222;2024-01-16T12:54:47;21.05;16.4;11.3
82817;PMS5003;72572;46.824;-71.222;2024-01-16T12:57:18;19.29;16.57;10.29
82817;PMS5003;72572;46.824;-71.222;2024-01-16T12:59:40;20.9;16.8;12
82817;PMS5003;72572;46.824;-71.222;2024-01-16T13:02:05;20.11;15.21;10
82817;PMS5003;72572;46.824;-71.222;2024-01-16T13:04:30;18.15;17.55;9.9
82817;PMS5003;72572;46.824;-71.222;2024-01-16T13:07:00;18.4;16.4;10.7
82817;PMS5003;72572;46.824;-71.222;2024-01-16T13:09:18;12.75;11.5;9
82817;PMS5003;72572;46.824;-71.222;2024-01-16T13:11:45;12.35;12.35;9.9
82817;PMS5003;72572;46.824;-71.222;2024-01-16T13:14:10;15.43;15.43;10.05
82817;PMS5003;72572;46.824;-71.222;2024-01-16T13:16:37;16.25;14.3;9.8
82817;PMS5003;72572;46.824;-71.222;2024-01-16T13:19:01;16.4;15.2;11.8
82817;PMS5003;72572;46.824;-71.222;2024-01-16T13:21:26;15.1;14.65;10.7
82817;PMS5003;72572;46.824;-71.222;2024-01-16T13:23:52;15.5;15.5;11.9
82817;PMS5003;72572;46.824;-71.222;2024-01-16T13:26:16;18.4;16.75;12.35
82817;PMS5003;72572;46.824;-71.222;2024-01-16T13:28:43;20.15;18.5;14
82817;PMS5003;72572;46.824;-71.222;2024-01-16T13:31:07;25.95;19.52;14.43
82817;PMS5003;72572;46.824;-71.222;2024-01-16T13:33:34;27.05;26.95;20.15
82817;PMS5003;72572;46.824;-71.222;2024-01-16T13:35:58;29.8;28.95;19.15